Time;durP1;ratioP1;P1;durP2;ratioP2;P2;SDS_P1;SDS_P2;PMS_P1;PMS_P2;Temp;Humidity;BMP_temperature;BMP_pressure;BME280_temperature;BME280_humidity;BME280_pressure;Samples;Min_cycle;Max_cycle;Signal;HPM_P1;HPM_P2
2021/01/11 00:02:04;;;;;;;64.47;21.42;;;;;;;0.82;85.40;101637.83;1340166;107;21587;-90
2021/01/11 00:04:30;;;;;;;67.95;22.60;;;;;;;0.82;85.35;101636.50;1336140;106;21320;-91
2021/01/11 00:06:56;;;;;;;62.23;21.73;;;;;;;0.79;85.08;101642.65;1340118;107;21294;-91
2021/01/11 00:09:23;;;;;;;61.08;21.05;;;;;;;0.71;84.92;101643.52;1336142;106;21708;-90
2021/01/11 00:11:49;;;;;;;65.17;22.48;;;;;;;0.68;84.86;101641.20;1336059;106;21673;-90
2021/01/11 00:14:16;;;;;;;57.73;20.37;;;;;;;0.65;84.90;101637.06;1340347;107;21327;-89
2021/01/11 00:16:41;;;;;;;61.58;20.23;;;;;;;0.64;84.69;101634.05;1336065;106;21364;-90
2021/01/11 00:19:08;;;;;;;59.95;21.00;;;;;;;0.61;84.54;101637.55;1349545;104;21225;-90
2021/01/11 00:21:33;;;;;;;60.30;21.10;;;;;;;0.55;84.42;101637.72;1404300;100;21611;-90
2021/01/11 00:23:59;;;;;;;61.85;21.02;;;;;;;0.55;84.54;101628.44;1436433;97;21039;-90
2021/01/11 00:26:25;;;;;;;66.72;22.75;;;;;;;0.50;84.49;101620.66;1474268;95;21043;-90
2021/01/11 00:28:51;;;;;;;62.80;21.82;;;;;;;0.47;84.54;101628.95;1511275;90;21229;-90
2021/01/11 00:31:25;;;;;;;64.60;22.00;;;;;;;0.40;84.51;101640.22;1620905;85;20961;-90
2021/01/11 00:33:52;;;;;;;64.15;22.75;;;;;;;0.32;84.27;101644.70;1665793;86;21077;-90
2021/01/11 00:36:20;;;;;;;65.70;23.10;;;;;;;0.17;84.27;101653.81;1665819;86;21574;-90
2021/01/11 00:38:47;;;;;;;67.90;23.42;;;;;;;0.07;84.43;101661.11;1665805;86;22293;-90
2021/01/11 00:41:18;;;;;;;67.37;24.27;;;;;;;-0.04;84.58;101661.73;1664907;86;22106;-90
2021/01/11 00:43:44;;;;;;;67.20;24.95;;;;;;;-0.10;84.71;101666.88;1662871;86;21617;-90
2021/01/11 00:46:10;;;;;;;72.35;24.32;;;;;;;-0.15;85.04;101675.80;1662957;86;21145;-90
2021/01/11 00:48:37;;;;;;;81.75;29.63;;;;;;;-0.18;85.25;101680.91;1662899;86;21164;-90
2021/01/11 00:51:07;;;;;;;77.10;26.97;;;;;;;-0.09;85.33;101674.67;1662888;86;21184;-90
2021/01/11 00:53:35;;;;;;;80.32;26.85;;;;;;;-0.06;85.77;101661.56;1662663;86;21238;-90
2021/01/11 00:56:00;;;;;;;80.30;27.62;;;;;;;-0.02;86.02;101667.71;1662895;86;21237;-89
2021/01/11 00:58:26;;;;;;;72.20;26.30;;;;;;;-0.04;86.26;101665.72;1635987;86;20967;-89
2021/01/11 01:00:52;;;;;;;71.47;25.65;;;;;;;-0.02;86.35;101666.39;1662866;86;21141;-90
2021/01/11 01:03:18;;;;;;;69.55;25.12;;;;;;;0.00;86.31;101659.62;1662795;86;21071;-89
2021/01/11 01:05:44;;;;;;;67.95;24.82;;;;;;;0.05;86.25;101659.11;1662884;86;21658;-90
2021/01/11 01:08:10;;;;;;;73.83;25.57;;;;;;;0.05;86.53;101651.16;1662697;86;21136;-90
2021/01/11 01:10:35;;;;;;;66.45;24.40;;;;;;;0.01;86.54;101649.84;1662778;86;20974;-90
2021/01/11 01:13:01;;;;;;;67.87;24.32;;;;;;;0.00;86.71;101643.72;1662883;86;21057;-90
2021/01/11 01:15:27;;;;;;;67.32;23.65;;;;;;;-0.02;86.66;101639.07;1662819;86;21006;-89
2021/01/11 01:17:53;;;;;;;59.93;22.58;;;;;;;-0.05;86.73;101630.13;1662909;86;22598;-90
2021/01/11 01:20:19;;;;;;;62.15;21.82;;;;;;;-0.04;86.88;101622.50;1662950;86;21141;-90
2021/01/11 01:22:50;;;;;;;65.25;23.92;;;;;;;-0.10;87.56;101620.01;1662682;86;21077;-89
2021/01/11 01:25:16;;;;;;;63.38;22.82;;;;;;;-0.10;87.47;101631.11;1663040;86;21125;-90
2021/01/11 01:27:43;;;;;;;68.47;24.15;;;;;;;-0.14;87.59;101633.27;1662847;86;21566;-90
2021/01/11 01:30:11;;;;;;;56.65;21.85;;;;;;;-0.16;87.33;101631.77;1634959;86;21174;-90
2021/01/11 01:32:38;;;;;;;64.30;22.50;;;;;;;-0.20;87.03;101626.47;1635707;86;21180;-90
2021/01/11 01:35:06;;;;;;;65.32;22.35;;;;;;;-0.29;86.82;101625.63;1662882;86;21156;-90
2021/01/11 01:37:32;;;;;;;61.98;22.37;;;;;;;-0.37;86.82;101622.95;1662927;86;21546;-89
2021/01/11 01:39:58;;;;;;;64.22;22.55;;;;;;;-0.44;86.73;101627.22;1662755;86;20990;-89
2021/01/11 01:42:23;;;;;;;63.15;21.57;;;;;;;-0.53;86.83;101625.91;1664331;85;21197;-89
2021/01/11 01:44:49;;;;;;;61.25;22.20;;;;;;;-0.61;86.84;101632.49;1665563;86;20975;-90
2021/01/11 01:47:16;;;;;;;67.67;24.15;;;;;;;-0.64;86.91;101628.02;1665773;86;21681;-88
2021/01/11 01:49:43;;;;;;;60.48;23.60;;;;;;;-0.69;86.71;101626.66;1665694;86;21610;-88
2021/01/11 01:52:09;;;;;;;61.88;22.00;;;;;;;-0.76;86.72;101628.80;1642718;86;21200;-88
2021/01/11 01:54:36;;;;;;;70.03;24.70;;;;;;;-0.83;86.70;101632.56;1665768;86;21232;-88
2021/01/11 01:57:06;;;;;;;73.12;26.20;;;;;;;-0.86;86.72;101627.59;1665713;86;21153;-88
2021/01/11 01:59:32;;;;;;;88.20;30.40;;;;;;;-0.90;86.51;101633.37;1665810;86;21253;-89
2021/01/11 02:01:59;;;;;;;95.07;30.40;;;;;;;-1.00;86.31;101640.09;1642561;86;21685;-89
2021/01/11 02:04:25;;;;;;;87.45;28.50;;;;;;;-1.07;86.50;101641.22;1665622;86;21093;-88
2021/01/11 02:07:00;;;;;;;74.45;28.42;;;;;;;-1.10;86.53;101640.21;1665631;86;22002;-88
2021/01/11 02:09:43;;;;;;;76.12;28.05;;;;;;;-1.13;86.46;101639.20;1665875;86;21563;-88
2021/01/11 02:12:16;;;;;;;64.55;25.57;;;;;;;-1.16;86.69;101635.05;1637515;87;21159;-88
2021/01/11 02:15:11;;;;;;;70.05;26.05;;;;;;;-1.21;86.87;101627.25;1635638;87;21679;-88
2021/01/11 02:17:47;;;;;;;78.33;28.62;;;;;;;-1.28;86.65;101632.34;1637851;87;21163;-89
2021/01/11 02:20:41;;;;;;;86.78;32.93;;;;;;;-1.38;86.50;101647.00;1586756;89;21618;-89
2021/01/11 02:23:42;;;;;;;91.47;33.60;;;;;;;-1.43;86.72;101645.30;1586517;89;21674;-89
2021/01/11 02:26:37;;;;;;;89.22;32.08;;;;;;;-1.48;86.77;101635.68;1537282;91;38223;-89
2021/01/11 02:29:15;;;;;;;79.05;28.50;;;;;;;-1.56;86.70;101630.83;1522591;94;21339;-89
2021/01/11 02:31:44;;;;;;;69.42;27.17;;;;;;;-1.65;86.53;101635.22;1522383;94;21219;-90
2021/01/11 02:34:12;;;;;;;74.20;26.77;;;;;;;-1.70;86.66;101637.52;1522850;94;21637;-90
2021/01/11 02:36:39;;;;;;;71.87;27.05;;;;;;;-1.77;86.66;101641.73;1522635;94;21191;-89
2021/01/11 02:39:06;;;;;;;72.15;27.42;;;;;;;-1.83;86.63;101636.08;1522734;94;21229;-90
2021/01/11 02:41:32;;;;;;;68.65;26.60;;;;;;;-1.87;86.54;101648.44;1522605;94;21254;-90
2021/01/11 02:43:58;;;;;;;69.92;26.15;;;;;;;-1.94;86.55;101665.39;1522554;94;21570;-90
2021/01/11 02:46:23;;;;;;;73.47;28.92;;;;;;;-1.98;86.76;101665.33;1522784;94;21321;-90
2021/01/11 02:48:57;;;;;;;73.87;29.00;;;;;;;-1.99;86.76;101674.74;1522700;94;21042;-90
2021/01/11 02:51:43;;;;;;;79.70;28.20;;;;;;;-2.05;86.76;101670.89;1467777;96;21217;-90
2021/01/11 02:54:19;;;;;;;71.77;27.42;;;;;;;-2.09;86.82;101674.33;1480248;96;21231;-90
2021/01/11 02:57:00;;;;;;;76.55;27.90;;;;;;;-2.10;86.83;101665.22;1494423;94;22384;-89
2021/01/11 02:59:54;;;;;;;82.55;29.18;;;;;;;-2.15;86.78;101659.06;1468331;97;21302;-89
2021/01/11 03:02:23;;;;;;;72.80;27.40;;;;;;;-2.23;86.62;101659.00;1422484;99;21286;-89
2021/01/11 03:04:50;;;;;;;75.92;28.17;;;;;;;-2.33;86.54;101663.50;1433177;99;21550;-90
2021/01/11 03:07:16;;;;;;;69.05;25.75;;;;;;;-2.40;86.63;101661.95;1447972;98;21674;-90
2021/01/11 03:09:46;;;;;;;63.25;24.63;;;;;;;-2.43;86.62;101658.28;1435915;99;21087;-90
2021/01/11 03:12:12;;;;;;;75.03;26.62;;;;;;;-2.51;85.80;101656.87;1412596;101;21282;-89
2021/01/11 03:14:39;;;;;;;69.90;26.15;;;;;;;-2.61;85.91;101661.38;1412411;100;21146;-90
2021/01/11 03:17:05;;;;;;;74.45;25.72;;;;;;;-2.64;86.26;101657.23;1412491;100;21720;-90
2021/01/11 03:19:31;;;;;;;58.08;23.62;;;;;;;-2.67;86.29;101660.66;1412478;100;21246;-89
2021/01/11 03:21:56;;;;;;;63.33;23.77;;;;;;;-2.70;86.42;101649.91;1412401;100;21384;-89
2021/01/11 03:24:23;;;;;;;67.90;26.65;;;;;;;-2.68;86.27;101657.16;1412608;101;21167;-89
2021/01/11 03:26:50;;;;;;;64.07;23.95;;;;;;;-2.74;86.28;101649.83;1412457;100;21319;-89
2021/01/11 03:29:18;;;;;;;71.50;27.40;;;;;;;-2.77;86.49;101643.04;1457111;97;21280;-88
2021/01/11 03:31:45;;;;;;;71.17;27.13;;;;;;;-2.84;86.62;101645.11;1499055;95;21536;-89
2021/01/11 03:34:11;;;;;;;74.12;28.62;;;;;;;-2.92;87.01;101648.46;1498908;95;22194;-88
2021/01/11 03:36:39;;;;;;;74.37;26.25;;;;;;;-2.98;87.15;101653.00;1499096;95;21688;-89
2021/01/11 03:39:08;;;;;;;74.77;27.35;;;;;;;-3.11;86.53;101668.33;1514799;93;21639;-89
2021/01/11 03:41:39;;;;;;;69.07;25.90;;;;;;;-3.17;86.61;101682.91;1501261;94;21073;-89
2021/01/11 03:44:06;;;;;;;67.25;25.60;;;;;;;-3.22;87.14;101682.50;1490259;96;21649;-89
2021/01/11 03:46:33;;;;;;;68.72;27.85;;;;;;;-3.24;86.94;101682.62;1490155;96;21299;-89
2021/01/11 03:48:58;;;;;;;73.57;27.55;;;;;;;-3.28;86.79;101686.53;1490281;96;21904;-88
2021/01/11 03:51:25;;;;;;;68.70;26.75;;;;;;;-3.31;88.29;101703.95;1490368;96;21106;-89
2021/01/11 03:53:51;;;;;;;73.47;29.70;;;;;;;-3.33;88.49;101709.01;1490267;96;21236;-88
2021/01/11 03:56:17;;;;;;;75.60;26.93;;;;;;;-3.32;88.46;101706.73;1553531;90;21255;-89
2021/01/11 03:58:43;;;;;;;73.45;28.20;;;;;;;-3.30;88.84;101701.64;1582774;90;21643;-89
2021/01/11 04:01:09;;;;;;;73.72;28.40;;;;;;;-3.26;89.10;101700.89;1582646;90;21207;-89
2021/01/11 04:03:35;;;;;;;78.83;28.85;;;;;;;-3.20;88.88;101702.97;1582751;90;21851;-89
2021/01/11 04:06:02;;;;;;;75.03;29.75;;;;;;;-3.13;89.76;101708.00;1582811;90;21032;-88
2021/01/11 04:08:28;;;;;;;78.02;27.85;;;;;;;-3.03;89.93;101706.18;1582835;90;21285;-90
2021/01/11 04:10:55;;;;;;;83.47;31.35;;;;;;;-2.94;90.35;101691.31;1582977;90;21254;-88
2021/01/11 04:13:21;;;;;;;81.82;31.37;;;;;;;-2.86;90.17;101690.08;1582619;90;21250;-89
2021/01/11 04:15:47;;;;;;;79.50;29.27;;;;;;;-2.76;89.51;101688.25;1582703;90;21502;-89
2021/01/11 04:18:14;;;;;;;69.10;26.25;;;;;;;-2.70;90.51;101687.33;1582898;90;21767;-89
2021/01/11 04:20:40;;;;;;;76.57;28.90;;;;;;;-2.69;92.07;101688.98;1582977;90;21697;-88
2021/01/11 04:23:06;;;;;;;86.45;31.85;;;;;;;-2.61;91.12;101697.83;1582764;90;21167;-88
2021/01/11 04:25:33;;;;;;;88.85;31.05;;;;;;;-2.61;91.10;101703.59;1583053;90;21652;-89
2021/01/11 04:28:01;;;;;;;78.20;28.52;;;;;;;-2.58;90.59;101703.30;1582771;90;21215;-89
2021/01/11 04:30:28;;;;;;;87.57;31.15;;;;;;;-2.59;90.20;101707.76;1582746;90;22362;-88
2021/01/11 04:32:55;;;;;;;78.72;28.87;;;;;;;-2.58;90.25;101701.98;1582766;90;21140;-89
2021/01/11 04:35:25;;;;;;;74.53;28.62;;;;;;;-2.58;89.94;101693.58;1582863;90;21104;-88
2021/01/11 04:37:50;;;;;;;76.25;28.15;;;;;;;-2.57;89.93;101688.63;1598937;87;21329;-89
2021/01/11 04:40:16;;;;;;;75.70;29.20;;;;;;;-2.60;89.42;101689.42;1646796;87;21087;-89
2021/01/11 04:42:54;;;;;;;81.80;29.25;;;;;;;-2.56;89.73;101690.77;1641296;86;21030;-89
2021/01/11 04:45:22;;;;;;;90.00;33.38;;;;;;;-2.53;89.79;101691.34;1549550;92;21664;-88
2021/01/11 04:47:55;;;;;;;78.90;30.10;;;;;;;-2.53;89.99;101689.16;1549429;92;21188;-88
2021/01/11 04:50:26;;;;;;;88.75;30.80;;;;;;;-2.54;90.79;101695.42;1506971;93;21952;-88
2021/01/11 04:52:53;;;;;;;78.70;28.95;;;;;;;-2.47;90.53;101700.48;1501083;94;21615;-88
2021/01/11 04:55:20;;;;;;;76.70;28.25;;;;;;;-2.46;91.50;101702.13;1538389;92;21220;-89
2021/01/11 04:57:56;;;;;;;87.12;31.62;;;;;;;-2.41;91.32;101703.84;1538427;92;21201;-89
2021/01/11 05:00:26;;;;;;;74.22;27.40;;;;;;;-2.33;91.39;101700.45;1538613;91;21536;-89
2021/01/11 05:03:07;;;;;;;79.70;29.25;;;;;;;-2.30;92.64;101691.74;1518969;94;21281;-89
2021/01/11 05:05:37;;;;;;;80.95;30.27;;;;;;;-2.25;92.84;101695.77;1518952;94;21690;-89
2021/01/11 05:08:04;;;;;;;82.67;28.75;;;;;;;-2.17;92.31;101690.08;1450961;98;21213;-88
2021/01/11 05:10:34;;;;;;;79.75;28.57;;;;;;;-2.07;92.19;101686.88;1450929;98;21165;-89
2021/01/11 05:13:09;;;;;;;77.42;29.35;;;;;;;-2.20;94.34;101691.70;1450911;98;21300;-89
2021/01/11 05:15:38;;;;;;;81.95;30.48;;;;;;;-2.11;94.59;101692.13;1451095;98;21232;-89
2021/01/11 05:18:17;;;;;;;84.37;28.30;;;;;;;-2.06;94.48;101692.98;1409042;101;21350;-89
2021/01/11 05:20:43;;;;;;;82.67;28.27;;;;;;;-1.96;93.66;101696.89;1401321;102;21322;-89
2021/01/11 05:23:12;;;;;;;91.02;29.98;;;;;;;-1.98;94.80;101694.39;1401493;102;21254;-89
2021/01/11 05:25:41;;;;;;;101.27;34.27;;;;;;;-1.98;95.82;101684.31;1401299;102;21256;-89
2021/01/11 05:28:18;;;;;;;98.75;36.15;;;;;;;-2.00;96.55;101695.05;1401468;102;21296;-90
2021/01/11 05:30:46;;;;;;;102.62;36.80;;;;;;;-1.90;96.01;101698.44;1401356;102;21274;-89
2021/01/11 05:33:27;;;;;;;100.42;36.93;;;;;;;-1.83;95.48;101702.61;1401458;102;21278;-88
2021/01/11 05:36:12;;;;;;;105.43;37.42;;;;;;;-1.77;95.45;101705.14;1401592;102;21288;-88
2021/01/11 05:38:46;;;;;;;100.42;34.10;;;;;;;-1.69;95.14;101719.27;1401517;102;21227;-88
2021/01/11 05:41:23;;;;;;;96.75;33.25;;;;;;;-1.61;94.87;101714.55;1402933;100;21314;-88
2021/01/11 05:44:11;;;;;;;102.15;34.53;;;;;;;-1.60;95.21;101706.95;1419430;100;21349;-88
2021/01/11 05:46:37;;;;;;;109.83;35.08;;;;;;;-1.52;94.87;101709.67;1414895;98;21221;-89
2021/01/11 05:49:07;;;;;;;99.25;33.30;;;;;;;-1.44;94.45;101704.45;1430024;99;21264;-89
2021/01/11 05:51:36;;;;;;;102.67;33.65;;;;;;;-1.33;94.20;101715.75;1451426;98;21229;-88
2021/01/11 05:54:04;;;;;;;119.62;39.58;;;;;;;-1.28;94.22;101713.48;1429963;98;21382;-88
2021/01/11 05:56:52;;;;;;;121.90;41.88;;;;;;;-1.17;93.90;101722.00;1451524;98;21250;-88
2021/01/11 05:59:18;;;;;;;122.87;39.60;;;;;;;-1.08;93.78;101726.86;1402029;100;21519;-89
2021/01/11 06:01:45;;;;;;;131.37;42.95;;;;;;;-0.96;93.68;101722.13;1401116;102;21283;-89
2021/01/11 06:04:10;;;;;;;136.43;46.30;;;;;;;-0.87;93.34;101721.69;1403423;101;21344;-89
2021/01/11 06:06:38;;;;;;;124.70;41.18;;;;;;;-0.96;93.06;101720.81;1416389;101;21372;-89
2021/01/11 06:09:05;;;;;;;104.12;35.25;;;;;;;-1.01;93.00;101715.97;1416367;101;21775;-89
2021/01/11 06:11:36;;;;;;;103.75;33.35;;;;;;;-1.22;93.77;101715.02;1416422;101;21650;-89
2021/01/11 06:14:07;;;;;;;95.12;31.62;;;;;;;-1.27;94.50;101711.17;1439778;96;21242;-89
2021/01/11 06:16:33;;;;;;;100.22;31.75;;;;;;;-1.38;95.06;101718.37;1494417;96;21292;-89
2021/01/11 06:19:00;;;;;;;93.82;30.57;;;;;;;-1.55;95.02;101724.52;1494584;96;21307;-89
2021/01/11 06:21:27;;;;;;;90.03;28.42;;;;;;;-1.56;95.11;101733.41;1494373;96;21204;-88
2021/01/11 06:24:18;;;;;;;78.02;26.48;;;;;;;-1.40;94.36;101741.48;1494456;96;21204;-89
2021/01/11 06:26:46;;;;;;;75.62;26.05;;;;;;;-1.47;94.14;101746.20;1494526;95;21665;-89
2021/01/11 06:29:35;;;;;;;82.33;27.62;;;;;;;-1.60;94.91;101726.28;1476349;96;21133;-89
2021/01/11 06:32:21;;;;;;;80.00;26.45;;;;;;;-1.74;95.57;101719.38;1494461;95;21747;-89
2021/01/11 06:34:48;;;;;;;79.60;26.12;;;;;;;-1.61;95.55;101729.91;1494607;96;21239;-90
2021/01/11 06:37:18;;;;;;;86.63;27.62;;;;;;;-1.45;94.79;101728.38;1516319;92;21203;-88
2021/01/11 06:39:47;;;;;;;85.35;27.27;;;;;;;-1.37;94.56;101725.31;1530191;92;21180;-89
2021/01/11 06:42:14;;;;;;;88.37;27.25;;;;;;;-1.19;94.05;101718.67;1534532;92;21196;-89
2021/01/11 06:44:44;;;;;;;89.72;28.27;;;;;;;-1.10;93.82;101726.66;1534536;92;21273;-89
2021/01/11 06:47:10;;;;;;;93.72;29.87;;;;;;;-1.00;93.85;101730.03;1529154;92;21255;-89
2021/01/11 06:49:39;;;;;;;93.17;29.00;;;;;;;-0.87;93.69;101725.66;1535041;92;21329;-95
2021/01/11 06:52:09;;;;;;;88.97;28.98;;;;;;;-0.77;93.37;101720.58;1534503;92;21281;-89
2021/01/11 06:54:38;;;;;;;107.35;31.48;;;;;;;-0.69;92.89;101719.80;1510195;93;21253;-90
2021/01/11 06:57:13;;;;;;;105.52;33.50;;;;;;;-0.67;92.43;101719.66;1507446;93;21221;-89
2021/01/11 06:59:40;;;;;;;80.80;27.15;;;;;;;-0.63;92.35;101726.28;1510380;93;21218;-92
2021/01/11 07:02:25;;;;;;;89.17;29.18;;;;;;;-0.44;92.52;101727.84;1510396;93;21667;-91
2021/01/11 07:04:54;;;;;;;85.87;27.82;;;;;;;-0.36;92.42;101728.70;1493601;94;21229;-91
2021/01/11 07:07:24;;;;;;;80.92;28.50;;;;;;;-0.29;92.43;101732.39;1493580;94;21202;-90
2021/01/11 07:09:58;;;;;;;76.20;25.57;;;;;;;-0.24;92.41;101740.69;1493852;94;21742;-91
2021/01/11 07:12:25;;;;;;;84.05;27.75;;;;;;;-0.18;92.29;101752.44;1485304;96;21123;-91
2021/01/11 07:15:05;;;;;;;89.45;29.52;;;;;;;-0.13;91.94;101764.72;1508480;94;21100;-92
2021/01/11 07:17:41;;;;;;;92.82;29.45;;;;;;;-0.07;91.80;101782.61;1523486;93;21147;-91
2021/01/11 07:20:13;;;;;;;103.00;29.85;;;;;;;0.03;92.04;101782.50;1493213;96;21210;-92
2021/01/11 07:22:42;;;;;;;85.65;28.27;;;;;;;0.18;92.21;101784.86;1493178;96;21247;-91
2021/01/11 07:25:24;;;;;;;90.10;28.77;;;;;;;0.29;91.76;101776.25;1493219;96;21667;-92
2021/01/11 07:27:59;;;;;;;85.47;28.85;;;;;;;0.49;91.78;101770.98;1493249;96;21330;-91
2021/01/11 07:30:26;;;;;;;84.25;27.52;;;;;;;0.64;91.59;101761.88;1493116;96;21228;-92
2021/01/11 07:32:52;;;;;;;81.28;26.97;;;;;;;0.78;91.62;101757.73;1493174;96;21219;-91
2021/01/11 07:35:18;;;;;;;76.53;26.25;;;;;;;0.87;91.00;101737.66;1493372;95;21720;-90
2021/01/11 07:37:44;;;;;;;86.63;27.93;;;;;;;0.83;89.52;101729.72;1497490;95;21014;-90
2021/01/11 07:40:11;;;;;;;79.97;27.55;;;;;;;0.85;88.92;101737.48;1497926;94;21082;-91
2021/01/11 07:42:38;;;;;;;88.92;28.35;;;;;;;1.15;90.13;101738.63;1498022;94;21073;-90
2021/01/11 07:45:10;;;;;;;79.65;27.65;;;;;;;1.59;91.29;101733.67;1522002;94;21677;-90
2021/01/11 07:47:38;;;;;;;76.95;26.55;;;;;;;1.87;90.44;101729.72;1462385;98;21215;-88
2021/01/11 07:50:06;;;;;;;71.05;25.43;;;;;;;2.12;89.65;101729.06;1462336;98;21258;-89
2021/01/11 07:52:32;;;;;;;73.57;24.10;;;;;;;2.37;87.50;101729.73;1444541;98;21461;-88
2021/01/11 07:55:07;;;;;;;65.00;22.15;;;;;;;2.42;85.77;101738.02;1462151;98;21231;-89
2021/01/11 07:57:33;;;;;;;73.55;24.72;;;;;;;2.38;82.95;101746.02;1497275;92;21168;-87
2021/01/11 08:00:06;;;;;;;74.27;24.45;;;;;;;2.40;84.19;101750.66;1538523;93;21243;-87
2021/01/11 08:02:32;;;;;;;78.05;25.45;;;;;;;2.07;82.98;101754.04;1559468;91;21532;-86
2021/01/11 08:04:59;;;;;;;66.53;22.80;;;;;;;1.97;84.24;101744.94;1564214;91;21275;-86
2021/01/11 08:07:31;;;;;;;69.15;24.40;;;;;;;2.00;84.47;101745.44;1564348;91;21190;-87
2021/01/11 08:10:00;;;;;;;67.22;24.98;;;;;;;2.04;84.65;101748.56;1493848;94;21301;-87
2021/01/11 08:12:30;;;;;;;73.62;24.77;;;;;;;2.16;84.86;101756.97;1516259;94;22037;-87
2021/01/11 08:15:08;;;;;;;64.77;21.97;;;;;;;2.13;84.46;101751.50;1516317;94;21296;-88
2021/01/11 08:17:43;;;;;;;66.30;21.87;;;;;;;2.20;84.37;101747.12;1516319;94;21385;-89
2021/01/11 08:20:09;;;;;;;58.78;21.17;;;;;;;2.26;84.25;101742.45;1516367;94;21213;-88
2021/01/11 08:22:35;;;;;;;57.65;20.52;;;;;;;2.07;82.58;101752.20;1516283;93;21294;-88
2021/01/11 08:25:02;;;;;;;61.90;20.85;;;;;;;1.90;80.81;101759.94;1497321;94;21106;-88
2021/01/11 08:27:44;;;;;;;63.65;22.20;;;;;;;1.90;82.01;101756.77;1516385;93;21154;-88
2021/01/11 08:30:15;;;;;;;58.90;21.07;;;;;;;1.59;81.96;101740.82;1516439;94;21245;-87
2021/01/11 08:32:42;;;;;;;63.23;20.23;;;;;;;1.74;82.69;101735.61;1492653;96;21261;-87
2021/01/11 08:35:14;;;;;;;57.30;20.82;;;;;;;2.04;83.20;101735.28;1492691;96;21214;-87
2021/01/11 08:37:42;;;;;;;58.23;20.65;;;;;;;2.27;83.92;101725.48;1492746;96;21214;-87
2021/01/11 08:40:11;;;;;;;62.00;21.25;;;;;;;2.12;82.26;101727.26;1492677;96;21202;-87
2021/01/11 08:42:39;;;;;;;62.10;21.23;;;;;;;2.34;83.14;101721.61;1492721;96;21668;-87
2021/01/11 08:45:36;;;;;;;58.73;20.10;;;;;;;2.61;83.85;101725.55;1528572;91;21276;-88
2021/01/11 08:48:14;;;;;;;57.43;20.37;;;;;;;2.91;83.50;101721.62;1547494;91;21628;-88
2021/01/11 08:50:56;;;;;;;52.45;17.40;;;;;;;2.76;81.10;101720.77;1547369;91;22349;-88
2021/01/11 08:53:38;;;;;;;52.80;17.67;;;;;;;2.55;78.27;101727.59;1547342;91;21232;-88
2021/01/11 08:56:08;;;;;;;46.68;17.85;;;;;;;2.44;78.55;101729.34;1547456;91;21206;-87
2021/01/11 08:58:36;;;;;;;47.55;17.42;;;;;;;2.30;79.48;101724.81;1547464;91;21636;-87
2021/01/11 09:01:16;;;;;;;56.30;18.62;;;;;;;2.32;80.03;101722.78;1565226;91;21242;-88
2021/01/11 09:06:42;;;;;;;50.38;17.17;;;;;;;2.17;80.42;101716.90;1514454;94;21388;-88
2021/01/11 09:09:21;;;;;;;49.55;18.57;;;;;;;1.96;80.11;101706.08;1472776;97;21253;-88
2021/01/11 09:11:49;;;;;;;49.15;17.40;;;;;;;1.66;81.30;101705.91;1511460;94;21359;-87
2021/01/11 09:14:18;;;;;;;44.27;16.00;;;;;;;1.74;81.70;101704.55;1472967;97;21261;-88
2021/01/11 09:16:51;;;;;;;45.05;16.48;;;;;;;1.62;81.59;101707.73;1511366;94;21675;-90
2021/01/11 09:19:20;;;;;;;62.30;20.17;;;;;;;1.50;82.26;101708.63;1475897;97;26683;-88
2021/01/11 09:22:03;;;;;;;66.37;22.15;;;;;;;1.57;82.63;101717.58;1514556;94;21299;-88
2021/01/11 09:24:29;;;;;;;67.37;24.40;;;;;;;1.72;83.12;101729.13;1498937;95;21181;-88
2021/01/11 09:26:57;;;;;;;61.50;22.20;;;;;;;1.86;82.87;101724.91;1498964;95;21269;-88
2021/01/11 09:29:24;;;;;;;56.80;20.95;;;;;;;1.92;82.67;101730.03;1514537;94;21286;-87
2021/01/11 09:31:50;;;;;;;60.45;20.20;;;;;;;1.92;82.26;101724.21;1498943;95;21130;-87
2021/01/11 09:34:17;;;;;;;62.80;21.48;;;;;;;1.77;81.56;101722.80;1498866;95;21269;-87
2021/01/11 09:36:44;;;;;;;51.30;19.57;;;;;;;1.77;82.22;101732.60;1520381;94;21313;-87
2021/01/11 09:39:13;;;;;;;58.35;21.42;;;;;;;1.66;81.55;101734.31;1547558;92;21195;-87
2021/01/11 09:41:48;;;;;;;69.82;25.48;;;;;;;1.64;82.08;101734.47;1520840;94;21418;-87
2021/01/11 09:44:16;;;;;;;65.17;23.98;;;;;;;1.70;82.35;101723.14;1551790;92;21200;-87
2021/01/11 09:46:49;;;;;;;77.65;27.48;;;;;;;1.68;82.42;101725.16;1556992;92;21180;-87
2021/01/11 09:49:15;;;;;;;72.15;25.25;;;;;;;1.67;82.43;101727.48;1557155;92;26800;-88
2021/01/11 09:51:41;;;;;;;90.95;32.13;;;;;;;1.72;82.50;101730.45;1537102;92;21351;-87
2021/01/11 09:54:08;;;;;;;73.22;25.72;;;;;;;1.73;82.22;101724.63;1556954;92;21297;-87
2021/01/11 09:56:37;;;;;;;60.03;21.42;;;;;;;1.64;82.16;101719.85;1538075;92;21101;-88
2021/01/11 09:59:08;;;;;;;62.73;23.18;;;;;;;1.66;81.86;101720.52;1493130;96;21231;-88
2021/01/11 10:01:40;;;;;;;61.92;23.47;;;;;;;1.40;81.77;101714.14;1498346;94;21797;-88
2021/01/11 10:04:06;;;;;;;60.75;20.12;;;;;;;1.31;82.09;101710.69;1518030;94;21292;-89
2021/01/11 10:06:45;;;;;;;56.55;19.98;;;;;;;1.25;82.59;101700.75;1524605;92;21925;-88
2021/01/11 10:09:12;;;;;;;54.88;19.85;;;;;;;1.21;82.62;101690.66;1532890;89;21284;-88
2021/01/11 10:11:39;;;;;;;58.00;19.45;;;;;;;1.10;83.07;101685.21;1583418;90;21216;-88
2021/01/11 10:14:07;;;;;;;54.73;19.45;;;;;;;0.99;83.54;101675.77;1579687;89;21251;-88
2021/01/11 10:16:34;;;;;;;51.42;18.42;;;;;;;0.45;85.09;101667.07;1553438;90;21191;-89
2021/01/11 10:19:00;;;;;;;57.25;20.92;;;;;;;0.34;86.07;101652.00;1590158;89;21421;-88
2021/01/11 10:21:26;;;;;;;64.12;21.62;;;;;;;0.27;87.41;101657.64;1584650;90;21670;-89
2021/01/11 10:23:53;;;;;;;58.78;22.10;;;;;;;0.53;86.45;101658.77;1589684;89;21175;-88
2021/01/11 10:26:22;;;;;;;59.88;21.07;;;;;;;0.48;86.50;101669.07;1594453;89;21230;-89
2021/01/11 10:28:50;;;;;;;55.05;19.67;;;;;;;0.42;86.74;101676.69;1590612;89;21536;-88
2021/01/11 10:31:17;;;;;;;51.85;19.00;;;;;;;0.40;86.68;101676.02;1611725;89;21675;-87
2021/01/11 10:33:47;;;;;;;46.83;16.57;;;;;;;0.52;86.19;101671.70;1608131;89;21246;-85
2021/01/11 10:36:15;;;;;;;48.10;17.32;;;;;;;0.37;85.39;101675.02;1559065;91;21202;-85
2021/01/11 10:38:43;;;;;;;53.02;19.48;;;;;;;0.50;86.13;101662.61;1556397;92;21790;-86
2021/01/11 10:41:18;;;;;;;51.53;17.50;;;;;;;0.32;87.11;101662.75;1556295;92;21566;-86
2021/01/11 10:43:48;;;;;;;40.52;14.78;;;;;;;0.26;87.12;101671.38;1556237;91;22126;-86
2021/01/11 10:46:15;;;;;;;48.85;17.27;;;;;;;0.07;86.22;101680.98;1556421;92;21721;-86
2021/01/11 10:48:44;;;;;;;42.65;14.50;;;;;;;-0.05;87.36;101689.23;1508461;95;21364;-86
2021/01/11 10:51:11;;;;;;;31.33;11.55;;;;;;;0.18;86.55;101701.88;1446641;97;21284;-86
2021/01/11 10:53:40;;;;;;;35.05;12.33;;;;;;;0.05;86.73;101700.18;1445983;97;21334;-86
2021/01/11 10:56:07;;;;;;;34.27;12.37;;;;;;;-0.05;87.45;101696.36;1461740;95;21363;-86
2021/01/11 10:58:34;;;;;;;27.85;10.32;;;;;;;-0.01;87.06;101697.19;1464248;96;21142;-86
2021/01/11 11:01:01;;;;;;;22.77;8.48;;;;;;;-0.03;85.95;101698.33;1483228;96;21253;-86
2021/01/11 11:03:27;;;;;;;26.73;9.68;;;;;;;-0.07;84.82;101700.48;1482507;96;21225;-86
2021/01/11 11:05:54;;;;;;;19.57;7.83;;;;;;;0.01;85.23;101703.66;1482597;96;21222;-86
2021/01/11 11:08:20;;;;;;;18.70;7.12;;;;;;;0.03;84.79;101703.01;1482487;96;21254;-86
2021/01/11 11:10:46;;;;;;;20.90;7.33;;;;;;;0.01;84.31;101703.66;1482507;96;21122;-86
2021/01/11 11:14:08;;;;;;;14.98;6.33;;;;;;;0.03;83.26;101707.45;1493947;95;21191;-86
2021/01/11 11:16:38;;;;;;;20.17;7.20;;;;;;;0.03;83.30;101698.18;1509170;94;21123;-87
2021/01/11 11:19:05;;;;;;;17.23;6.75;;;;;;;0.16;83.37;101695.89;1509265;93;21207;-87
2021/01/11 11:21:30;;;;;;;16.05;6.78;;;;;;;0.05;81.88;101699.68;1509350;95;21287;-87
2021/01/11 11:23:56;;;;;;;17.65;6.80;;;;;;;-0.14;81.92;101705.28;1509270;95;21229;-86
2021/01/11 11:26:29;;;;;;;19.25;7.47;;;;;;;-0.12;82.43;101707.26;1508798;93;21062;-89
2021/01/11 11:28:56;;;;;;;17.45;7.25;;;;;;;-0.19;82.26;101706.26;1465667;95;21348;-87